sensor_id;sensor_type;location;lat;lon;timestamp;P1;durP1;ratioP1;P2;durP2;ratioP2
69047;SDS011;56119;50.118;8.642;2023-02-12T00:01:27;43.20;;;24.70;;
69047;SDS011;56119;50.118;8.642;2023-02-12T00:03:53;44.30;;;26.00;;
69047;SDS011;56119;50.118;8.642;2023-02-12T00:06:19;45.25;;;25.60;;
69047;SDS011;56119;50.118;8.642;2023-02-12T00:08:48;45.17;;;25.95;;
69047;SDS011;56119;50.118;8.642;2023-02-12T00:11:15;42.03;;;25.15;;
69047;SDS011;56119;50.118;8.642;2023-02-12T00:13:41;41.33;;;24.73;;
69047;SDS011;56119;50.118;8.642;2023-02-12T00:16:08;41.83;;;25.48;;
69047;SDS011;56119;50.118;8.642;2023-02-12T00:18:35;41.00;;;25.10;;
69047;SDS011;56119;50.118;8.642;2023-02-12T00:21:01;38.63;;;24.05;;
69047;SDS011;56119;50.118;8.642;2023-02-12T00:23:27;42.45;;;24.17;;
69047;SDS011;56119;50.118;8.642;2023-02-12T00:25:53;43.10;;;25.25;;
69047;SDS011;56119;50.118;8.642;2023-02-12T00:28:19;35.90;;;22.35;;
69047;SDS011;56119;50.118;8.642;2023-02-12T00:30:45;36.08;;;23.27;;
69047;SDS011;56119;50.118;8.642;2023-02-12T00:33:11;42.20;;;24.42;;
69047;SDS011;56119;50.118;8.642;2023-02-12T00:35:37;37.55;;;22.58;;
69047;SDS011;56119;50.118;8.642;2023-02-12T00:38:03;37.85;;;23.52;;
69047;SDS011;56119;50.118;8.642;2023-02-12T00:40:30;35.97;;;22.05;;
69047;SDS011;56119;50.118;8.642;2023-02-12T00:42:56;40.50;;;22.98;;
69047;SDS011;56119;50.118;8.642;2023-02-12T00:45:22;38.05;;;22.13;;
69047;SDS011;56119;50.118;8.642;2023-02-12T00:47:48;36.05;;;22.65;;
69047;SDS011;56119;50.118;8.642;2023-02-12T00:50:14;35.53;;;22.33;;
69047;SDS011;56119;50.118;8.642;2023-02-12T00:52:40;36.65;;;22.55;;
69047;SDS011;56119;50.118;8.642;2023-02-12T00:55:06;42.38;;;25.05;;
69047;SDS011;56119;50.118;8.642;2023-02-12T00:57:32;35.63;;;23.08;;
69047;SDS011;56119;50.118;8.642;2023-02-12T00:59:58;38.72;;;23.10;;
69047;SDS011;56119;50.118;8.642;2023-02-12T01:02:24;36.25;;;22.92;;
69047;SDS011;56119;50.118;8.642;2023-02-12T01:04:50;38.20;;;23.10;;
69047;SDS011;56119;50.118;8.642;2023-02-12T01:07:16;41.08;;;23.70;;
69047;SDS011;56119;50.118;8.642;2023-02-12T01:09:42;37.85;;;23.30;;
69047;SDS011;56119;50.118;8.642;2023-02-12T01:12:08;40.10;;;24.23;;
69047;SDS011;56119;50.118;8.642;2023-02-12T01:14:34;41.58;;;24.73;;
69047;SDS011;56119;50.118;8.642;2023-02-12T01:17:00;40.13;;;23.77;;
69047;SDS011;56119;50.118;8.642;2023-02-12T01:19:26;40.75;;;24.60;;
69047;SDS011;56119;50.118;8.642;2023-02-12T01:21:52;37.50;;;23.63;;
69047;SDS011;56119;50.118;8.642;2023-02-12T01:24:18;35.55;;;22.67;;
69047;SDS011;56119;50.118;8.642;2023-02-12T01:26:44;38.50;;;23.10;;
69047;SDS011;56119;50.118;8.642;2023-02-12T01:29:10;35.58;;;22.33;;
69047;SDS011;56119;50.118;8.642;2023-02-12T01:31:36;38.83;;;24.23;;
69047;SDS011;56119;50.118;8.642;2023-02-12T01:34:03;32.42;;;22.20;;
69047;SDS011;56119;50.118;8.642;2023-02-12T01:36:30;39.28;;;24.45;;
69047;SDS011;56119;50.118;8.642;2023-02-12T01:38:56;39.88;;;24.67;;
69047;SDS011;56119;50.118;8.642;2023-02-12T01:41:24;40.03;;;24.27;;
69047;SDS011;56119;50.118;8.642;2023-02-12T01:46:35;41.45;;;24.75;;
69047;SDS011;56119;50.118;8.642;2023-02-12T01:49:01;39.03;;;24.13;;
69047;SDS011;56119;50.118;8.642;2023-02-12T01:51:29;41.08;;;24.60;;
69047;SDS011;56119;50.118;8.642;2023-02-12T01:53:55;35.05;;;23.58;;
69047;SDS011;56119;50.118;8.642;2023-02-12T01:56:23;41.55;;;25.75;;
69047;SDS011;56119;50.118;8.642;2023-02-12T01:58:50;39.10;;;24.55;;
69047;SDS011;56119;50.118;8.642;2023-02-12T02:01:18;41.20;;;26.35;;
69047;SDS011;56119;50.118;8.642;2023-02-12T02:03:46;33.50;;;23.38;;
69047;SDS011;56119;50.118;8.642;2023-02-12T02:06:20;35.70;;;23.60;;
69047;SDS011;56119;50.118;8.642;2023-02-12T02:08:47;39.45;;;24.83;;
69047;SDS011;56119;50.118;8.642;2023-02-12T02:11:13;39.22;;;24.15;;
69047;SDS011;56119;50.118;8.642;2023-02-12T02:13:58;35.90;;;24.27;;
69047;SDS011;56119;50.118;8.642;2023-02-12T02:16:44;39.33;;;24.60;;
69047;SDS011;56119;50.118;8.642;2023-02-12T02:29:33;42.13;;;26.20;;
69047;SDS011;56119;50.118;8.642;2023-02-12T02:32:17;40.03;;;26.10;;
69047;SDS011;56119;50.118;8.642;2023-02-12T02:35:00;39.70;;;25.40;;
69047;SDS011;56119;50.118;8.642;2023-02-12T02:40:06;43.15;;;26.85;;
69047;SDS011;56119;50.118;8.642;2023-02-12T02:42:38;39.22;;;24.88;;
69047;SDS011;56119;50.118;8.642;2023-02-12T02:45:08;38.65;;;25.67;;
69047;SDS011;56119;50.118;8.642;2023-02-12T02:47:37;45.88;;;26.85;;
69047;SDS011;56119;50.118;8.642;2023-02-12T02:50:05;38.85;;;25.20;;
69047;SDS011;56119;50.118;8.642;2023-02-12T02:52:36;38.72;;;25.50;;
69047;SDS011;56119;50.118;8.642;2023-02-12T02:55:06;42.78;;;26.02;;
69047;SDS011;56119;50.118;8.642;2023-02-12T02:57:37;38.65;;;25.30;;
69047;SDS011;56119;50.118;8.642;2023-02-12T03:00:06;40.67;;;24.20;;
69047;SDS011;56119;50.118;8.642;2023-02-12T03:02:37;45.55;;;26.35;;
69047;SDS011;56119;50.118;8.642;2023-02-12T03:05:13;40.75;;;27.88;;
69047;SDS011;56119;50.118;8.642;2023-02-12T03:07:43;38.17;;;25.33;;
69047;SDS011;56119;50.118;8.642;2023-02-12T03:10:11;43.22;;;26.90;;
69047;SDS011;56119;50.118;8.642;2023-02-12T03:15:07;39.97;;;24.75;;
69047;SDS011;56119;50.118;8.642;2023-02-12T03:17:36;44.08;;;26.25;;
69047;SDS011;56119;50.118;8.642;2023-02-12T03:20:05;40.97;;;26.23;;
69047;SDS011;56119;50.118;8.642;2023-02-12T03:22:33;41.25;;;25.75;;
69047;SDS011;56119;50.118;8.642;2023-02-12T03:25:03;38.70;;;25.63;;
69047;SDS011;56119;50.118;8.642;2023-02-12T03:27:35;41.90;;;25.73;;
69047;SDS011;56119;50.118;8.642;2023-02-12T03:30:03;42.30;;;26.27;;
69047;SDS011;56119;50.118;8.642;2023-02-12T03:37:26;46.17;;;26.77;;
69047;SDS011;56119;50.118;8.642;2023-02-12T03:39:55;40.65;;;25.83;;
69047;SDS011;56119;50.118;8.642;2023-02-12T03:42:33;41.38;;;24.83;;
69047;SDS011;56119;50.118;8.642;2023-02-12T03:45:02;43.70;;;26.67;;
69047;SDS011;56119;50.118;8.642;2023-02-12T03:47:37;44.85;;;27.52;;
69047;SDS011;56119;50.118;8.642;2023-02-12T03:52:38;49.50;;;27.05;;
69047;SDS011;56119;50.118;8.642;2023-02-12T03:55:04;42.20;;;25.38;;
69047;SDS011;56119;50.118;8.642;2023-02-12T03:57:31;39.47;;;25.10;;
69047;SDS011;56119;50.118;8.642;2023-02-12T04:00:04;42.22;;;27.38;;
69047;SDS011;56119;50.118;8.642;2023-02-12T04:02:30;46.00;;;27.83;;
69047;SDS011;56119;50.118;8.642;2023-02-12T04:04:56;41.47;;;25.55;;
69047;SDS011;56119;50.118;8.642;2023-02-12T04:07:22;42.22;;;25.98;;
69047;SDS011;56119;50.118;8.642;2023-02-12T04:09:49;39.25;;;24.70;;
69047;SDS011;56119;50.118;8.642;2023-02-12T04:14:55;45.47;;;25.65;;
69047;SDS011;56119;50.118;8.642;2023-02-12T04:17:29;42.83;;;25.95;;
69047;SDS011;56119;50.118;8.642;2023-02-12T04:22:44;42.08;;;25.75;;
69047;SDS011;56119;50.118;8.642;2023-02-12T04:27:56;37.95;;;25.27;;
69047;SDS011;56119;50.118;8.642;2023-02-12T04:30:31;41.47;;;25.88;;
69047;SDS011;56119;50.118;8.642;2023-02-12T04:32:59;45.45;;;26.50;;
69047;SDS011;56119;50.118;8.642;2023-02-12T04:35:34;42.50;;;25.42;;
69047;SDS011;56119;50.118;8.642;2023-02-12T04:38:09;40.72;;;25.88;;
69047;SDS011;56119;50.118;8.642;2023-02-12T04:40:38;39.67;;;25.52;;
69047;SDS011;56119;50.118;8.642;2023-02-12T04:43:05;42.88;;;26.02;;
69047;SDS011;56119;50.118;8.642;2023-02-12T04:45:32;46.65;;;26.75;;
69047;SDS011;56119;50.118;8.642;2023-02-12T04:47:59;45.60;;;26.55;;
69047;SDS011;56119;50.118;8.642;2023-02-12T04:50:25;48.80;;;28.17;;
69047;SDS011;56119;50.118;8.642;2023-02-12T04:52:52;43.40;;;27.80;;
69047;SDS011;56119;50.118;8.642;2023-02-12T04:55:18;48.60;;;27.83;;
69047;SDS011;56119;50.118;8.642;2023-02-12T04:57:44;48.80;;;28.15;;
69047;SDS011;56119;50.118;8.642;2023-02-12T05:00:11;48.50;;;28.90;;
69047;SDS011;56119;50.118;8.642;2023-02-12T05:02:37;45.38;;;27.67;;
69047;SDS011;56119;50.118;8.642;2023-02-12T05:05:03;45.65;;;28.13;;
69047;SDS011;56119;50.118;8.642;2023-02-12T05:07:29;46.65;;;28.15;;
69047;SDS011;56119;50.118;8.642;2023-02-12T05:09:55;52.03;;;29.13;;
69047;SDS011;56119;50.118;8.642;2023-02-12T05:12:21;47.03;;;29.58;;
69047;SDS011;56119;50.118;8.642;2023-02-12T05:14:47;49.75;;;28.45;;
69047;SDS011;56119;50.118;8.642;2023-02-12T05:17:13;45.78;;;27.20;;
69047;SDS011;56119;50.118;8.642;2023-02-12T05:19:39;50.25;;;28.33;;
69047;SDS011;56119;50.118;8.642;2023-02-12T05:22:05;48.72;;;28.40;;
69047;SDS011;56119;50.118;8.642;2023-02-12T05:24:31;47.55;;;27.77;;
69047;SDS011;56119;50.118;8.642;2023-02-12T05:26:57;45.45;;;27.75;;
69047;SDS011;56119;50.118;8.642;2023-02-12T05:29:23;47.10;;;27.70;;
69047;SDS011;56119;50.118;8.642;2023-02-12T05:31:49;47.95;;;28.70;;
69047;SDS011;56119;50.118;8.642;2023-02-12T05:34:15;46.72;;;28.27;;
69047;SDS011;56119;50.118;8.642;2023-02-12T05:36:41;50.10;;;29.23;;
69047;SDS011;56119;50.118;8.642;2023-02-12T05:39:07;49.60;;;28.65;;
69047;SDS011;56119;50.118;8.642;2023-02-12T05:41:33;48.08;;;29.63;;
69047;SDS011;56119;50.118;8.642;2023-02-12T05:44:00;45.08;;;27.80;;
69047;SDS011;56119;50.118;8.642;2023-02-12T05:46:26;47.00;;;27.55;;
69047;SDS011;56119;50.118;8.642;2023-02-12T05:48:52;48.10;;;28.88;;
69047;SDS011;56119;50.118;8.642;2023-02-12T05:51:19;49.22;;;28.17;;
69047;SDS011;56119;50.118;8.642;2023-02-12T05:53:46;46.00;;;29.33;;
69047;SDS011;56119;50.118;8.642;2023-02-12T05:56:16;47.70;;;27.33;;
69047;SDS011;56119;50.118;8.642;2023-02-12T05:58:44;48.92;;;28.50;;
69047;SDS011;56119;50.118;8.642;2023-02-12T06:01:11;50.70;;;31.02;;
69047;SDS011;56119;50.118;8.642;2023-02-12T06:03:38;51.90;;;29.55;;
69047;SDS011;56119;50.118;8.642;2023-02-12T06:06:04;49.55;;;29.30;;
69047;SDS011;56119;50.118;8.642;2023-02-12T06:08:30;50.88;;;30.05;;
69047;SDS011;56119;50.118;8.642;2023-02-12T06:10:58;52.50;;;30.35;;
69047;SDS011;56119;50.118;8.642;2023-02-12T06:13:25;50.65;;;29.35;;
69047;SDS011;56119;50.118;8.642;2023-02-12T06:15:51;51.40;;;29.13;;
69047;SDS011;56119;50.118;8.642;2023-02-12T06:18:17;47.50;;;30.02;;
69047;SDS011;56119;50.118;8.642;2023-02-12T06:20:43;46.85;;;29.10;;
69047;SDS011;56119;50.118;8.642;2023-02-12T06:23:09;45.78;;;28.13;;
69047;SDS011;56119;50.118;8.642;2023-02-12T06:25:35;46.22;;;28.90;;
69047;SDS011;56119;50.118;8.642;2023-02-12T06:28:00;51.25;;;30.65;;
69047;SDS011;56119;50.118;8.642;2023-02-12T06:30:26;50.28;;;28.40;;
69047;SDS011;56119;50.118;8.642;2023-02-12T06:32:52;50.45;;;29.85;;
69047;SDS011;56119;50.118;8.642;2023-02-12T06:35:18;47.38;;;29.27;;
69047;SDS011;56119;50.118;8.642;2023-02-12T06:37:44;50.92;;;30.83;;
69047;SDS011;56119;50.118;8.642;2023-02-12T06:40:10;48.90;;;30.08;;
69047;SDS011;56119;50.118;8.642;2023-02-12T06:42:36;49.47;;;30.45;;
69047;SDS011;56119;50.118;8.642;2023-02-12T06:45:02;50.28;;;29.88;;
69047;SDS011;56119;50.118;8.642;2023-02-12T06:47:28;51.42;;;30.83;;
69047;SDS011;56119;50.118;8.642;2023-02-12T06:49:54;48.30;;;30.38;;
69047;SDS011;56119;50.118;8.642;2023-02-12T06:52:20;53.03;;;30.25;;
69047;SDS011;56119;50.118;8.642;2023-02-12T06:54:46;54.15;;;32.00;;
69047;SDS011;56119;50.118;8.642;2023-02-12T06:57:12;54.28;;;30.80;;
69047;SDS011;56119;50.118;8.642;2023-02-12T06:59:38;52.53;;;31.27;;
69047;SDS011;56119;50.118;8.642;2023-02-12T07:02:04;52.03;;;31.60;;
69047;SDS011;56119;50.118;8.642;2023-02-12T07:04:30;58.38;;;33.30;;
69047;SDS011;56119;50.118;8.642;2023-02-12T07:06:56;55.95;;;33.47;;
69047;SDS011;56119;50.118;8.642;2023-02-12T07:09:22;55.55;;;34.20;;
69047;SDS011;56119;50.118;8.642;2023-02-12T07:11:48;64.22;;;35.60;;
69047;SDS011;56119;50.118;8.642;2023-02-12T07:14:14;63.40;;;35.88;;
69047;SDS011;56119;50.118;8.642;2023-02-12T07:16:41;60.92;;;34.42;;
69047;SDS011;56119;50.118;8.642;2023-02-12T07:19:07;63.90;;;35.88;;
69047;SDS011;56119;50.118;8.642;2023-02-12T07:21:34;60.40;;;33.90;;
69047;SDS011;56119;50.118;8.642;2023-02-12T07:24:00;68.15;;;37.65;;
69047;SDS011;56119;50.118;8.642;2023-02-12T07:26:26;63.13;;;34.65;;
69047;SDS011;56119;50.118;8.642;2023-02-12T07:28:52;61.92;;;35.50;;
69047;SDS011;56119;50.118;8.642;2023-02-12T07:31:20;64.45;;;35.08;;
69047;SDS011;56119;50.118;8.642;2023-02-12T07:33:46;58.47;;;34.65;;
69047;SDS011;56119;50.118;8.642;2023-02-12T07:36:14;59.70;;;34.53;;
69047;SDS011;56119;50.118;8.642;2023-02-12T07:38:40;59.60;;;34.92;;
69047;SDS011;56119;50.118;8.642;2023-02-12T07:43:32;59.85;;;34.83;;
69047;SDS011;56119;50.118;8.642;2023-02-12T07:46:05;56.45;;;34.80;;
69047;SDS011;56119;50.118;8.642;2023-02-12T07:48:31;58.28;;;35.67;;
69047;SDS011;56119;50.118;8.642;2023-02-12T07:51:01;57.97;;;33.55;;
69047;SDS011;56119;50.118;8.642;2023-02-12T07:53:27;59.42;;;34.75;;
69047;SDS011;56119;50.118;8.642;2023-02-12T07:55:53;58.38;;;35.22;;
69047;SDS011;56119;50.118;8.642;2023-02-12T07:58:19;62.83;;;36.25;;
69047;SDS011;56119;50.118;8.642;2023-02-12T08:00:45;60.25;;;35.78;;
69047;SDS011;56119;50.118;8.642;2023-02-12T08:03:10;60.15;;;34.63;;
69047;SDS011;56119;50.118;8.642;2023-02-12T08:05:36;65.15;;;36.20;;
69047;SDS011;56119;50.118;8.642;2023-02-12T08:08:02;58.60;;;35.05;;
69047;SDS011;56119;50.118;8.642;2023-02-12T08:10:28;61.47;;;34.13;;
69047;SDS011;56119;50.118;8.642;2023-02-12T08:12:54;60.70;;;34.33;;
69047;SDS011;56119;50.118;8.642;2023-02-12T08:15:20;55.80;;;35.15;;
69047;SDS011;56119;50.118;8.642;2023-02-12T08:17:46;62.13;;;35.95;;
69047;SDS011;56119;50.118;8.642;2023-02-12T08:20:12;64.03;;;37.45;;
69047;SDS011;56119;50.118;8.642;2023-02-12T08:22:38;60.92;;;35.05;;
69047;SDS011;56119;50.118;8.642;2023-02-12T08:25:04;65.45;;;36.95;;
69047;SDS011;56119;50.118;8.642;2023-02-12T08:27:30;59.00;;;34.92;;
69047;SDS011;56119;50.118;8.642;2023-02-12T08:29:56;62.15;;;36.53;;
69047;SDS011;56119;50.118;8.642;2023-02-12T08:32:24;55.88;;;34.20;;
69047;SDS011;56119;50.118;8.642;2023-02-12T08:34:50;54.10;;;32.50;;
69047;SDS011;56119;50.118;8.642;2023-02-12T08:37:16;56.65;;;33.33;;
69047;SDS011;56119;50.118;8.642;2023-02-12T08:39:42;55.55;;;33.70;;
69047;SDS011;56119;50.118;8.642;2023-02-12T08:42:08;58.67;;;35.00;;
69047;SDS011;56119;50.118;8.642;2023-02-12T08:44:34;61.33;;;33.58;;
69047;SDS011;56119;50.118;8.642;2023-02-12T08:47:01;56.00;;;32.75;;
69047;SDS011;56119;50.118;8.642;2023-02-12T08:49:27;57.88;;;33.63;;
69047;SDS011;56119;50.118;8.642;2023-02-12T08:51:55;60.65;;;34.65;;
69047;SDS011;56119;50.118;8.642;2023-02-12T08:54:22;55.00;;;36.93;;
69047;SDS011;56119;50.118;8.642;2023-02-12T08:56:48;53.42;;;33.35;;
69047;SDS011;56119;50.118;8.642;2023-02-12T08:59:15;57.83;;;35.33;;
69047;SDS011;56119;50.118;8.642;2023-02-12T09:01:41;58.35;;;33.80;;
69047;SDS011;56119;50.118;8.642;2023-02-12T09:04:11;53.80;;;33.63;;
69047;SDS011;56119;50.118;8.642;2023-02-12T09:06:38;55.50;;;32.20;;
69047;SDS011;56119;50.118;8.642;2023-02-12T09:09:03;56.60;;;34.30;;
69047;SDS011;56119;50.118;8.642;2023-02-12T09:11:31;48.78;;;32.53;;
69047;SDS011;56119;50.118;8.642;2023-02-12T09:13:59;53.38;;;33.30;;
69047;SDS011;56119;50.118;8.642;2023-02-12T09:16:26;55.45;;;34.20;;
69047;SDS011;56119;50.118;8.642;2023-02-12T09:18:53;57.55;;;34.83;;
69047;SDS011;56119;50.118;8.642;2023-02-12T09:21:19;56.40;;;34.75;;
69047;SDS011;56119;50.118;8.642;2023-02-12T09:23:45;55.60;;;33.17;;
69047;SDS011;56119;50.118;8.642;2023-02-12T09:26:12;63.13;;;34.33;;
69047;SDS011;56119;50.118;8.642;2023-02-12T09:28:42;60.72;;;34.45;;
69047;SDS011;56119;50.118;8.642;2023-02-12T09:31:09;53.85;;;33.25;;
69047;SDS011;56119;50.118;8.642;2023-02-12T09:33:35;52.65;;;32.67;;
69047;SDS011;56119;50.118;8.642;2023-02-12T09:36:02;57.92;;;34.92;;
69047;SDS011;56119;50.118;8.642;2023-02-12T09:38:29;56.28;;;32.70;;
69047;SDS011;56119;50.118;8.642;2023-02-12T09:41:01;54.20;;;31.55;;
69047;SDS011;56119;50.118;8.642;2023-02-12T09:46:12;53.97;;;31.27;;
69047;SDS011;56119;50.118;8.642;2023-02-12T09:51:09;51.38;;;31.55;;
69047;SDS011;56119;50.118;8.642;2023-02-12T09:53:37;52.92;;;32.88;;
69047;SDS011;56119;50.118;8.642;2023-02-12T09:56:22;59.65;;;34.85;;
69047;SDS011;56119;50.118;8.642;2023-02-12T09:58:50;64.40;;;35.92;;
69047;SDS011;56119;50.118;8.642;2023-02-12T10:01:17;66.50;;;37.83;;
69047;SDS011;56119;50.118;8.642;2023-02-12T10:03:44;64.05;;;37.55;;
69047;SDS011;56119;50.118;8.642;2023-02-12T10:06:19;64.65;;;35.53;;
69047;SDS011;56119;50.118;8.642;2023-02-12T10:08:49;68.38;;;37.30;;
69047;SDS011;56119;50.118;8.642;2023-02-12T10:11:31;67.47;;;36.72;;
69047;SDS011;56119;50.118;8.642;2023-02-12T10:14:14;68.32;;;36.85;;
69047;SDS011;56119;50.118;8.642;2023-02-12T10:17:00;62.38;;;34.35;;
69047;SDS011;56119;50.118;8.642;2023-02-12T10:22:17;66.57;;;34.78;;
69047;SDS011;56119;50.118;8.642;2023-02-12T10:27:33;73.45;;;37.75;;
69047;SDS011;56119;50.118;8.642;2023-02-12T10:30:02;68.13;;;36.60;;
69047;SDS011;56119;50.118;8.642;2023-02-12T10:32:29;73.13;;;38.22;;
69047;SDS011;56119;50.118;8.642;2023-02-12T10:34:56;65.32;;;36.00;;
69047;SDS011;56119;50.118;8.642;2023-02-12T10:39:54;70.05;;;37.75;;
69047;SDS011;56119;50.118;8.642;2023-02-12T10:44:56;66.38;;;35.92;;
69047;SDS011;56119;50.118;8.642;2023-02-12T10:47:22;66.43;;;35.80;;
69047;SDS011;56119;50.118;8.642;2023-02-12T10:50:00;65.85;;;35.75;;
69047;SDS011;56119;50.118;8.642;2023-02-12T10:52:41;58.83;;;33.20;;
69047;SDS011;56119;50.118;8.642;2023-02-12T10:55:23;62.67;;;36.20;;
69047;SDS011;56119;50.118;8.642;2023-02-12T10:57:49;64.43;;;34.55;;
69047;SDS011;56119;50.118;8.642;2023-02-12T11:00:26;63.00;;;34.58;;
69047;SDS011;56119;50.118;8.642;2023-02-12T11:03:01;60.40;;;33.78;;
69047;SDS011;56119;50.118;8.642;2023-02-12T11:05:28;59.92;;;32.97;;
69047;SDS011;56119;50.118;8.642;2023-02-12T11:07:54;63.20;;;34.60;;
69047;SDS011;56119;50.118;8.642;2023-02-12T11:10:27;62.42;;;33.22;;
69047;SDS011;56119;50.118;8.642;2023-02-12T11:12:55;60.63;;;33.47;;
69047;SDS011;56119;50.118;8.642;2023-02-12T11:15:23;59.80;;;33.63;;
69047;SDS011;56119;50.118;8.642;2023-02-12T11:20:26;54.40;;;31.58;;
69047;SDS011;56119;50.118;8.642;2023-02-12T11:22:54;57.67;;;32.22;;
69047;SDS011;56119;50.118;8.642;2023-02-12T11:25:21;59.83;;;33.90;;
69047;SDS011;56119;50.118;8.642;2023-02-12T11:27:57;65.75;;;34.95;;
69047;SDS011;56119;50.118;8.642;2023-02-12T11:30:24;58.20;;;33.65;;
69047;SDS011;56119;50.118;8.642;2023-02-12T11:32:50;56.65;;;32.55;;
69047;SDS011;56119;50.118;8.642;2023-02-12T11:37:49;60.05;;;33.65;;
69047;SDS011;56119;50.118;8.642;2023-02-12T11:40:19;57.78;;;32.55;;
69047;SDS011;56119;50.118;8.642;2023-02-12T11:42:46;57.42;;;33.22;;
69047;SDS011;56119;50.118;8.642;2023-02-12T11:45:17;58.70;;;33.75;;
69047;SDS011;56119;50.118;8.642;2023-02-12T11:47:44;63.38;;;35.00;;
69047;SDS011;56119;50.118;8.642;2023-02-12T11:52:39;56.38;;;31.63;;
69047;SDS011;56119;50.118;8.642;2023-02-12T11:55:07;62.78;;;33.95;;
69047;SDS011;56119;50.118;8.642;2023-02-12T12:00:28;60.50;;;35.13;;
69047;SDS011;56119;50.118;8.642;2023-02-12T12:05:57;55.25;;;32.47;;
69047;SDS011;56119;50.118;8.642;2023-02-12T12:08:30;50.92;;;30.92;;
69047;SDS011;56119;50.118;8.642;2023-02-12T12:10:59;63.28;;;33.90;;
69047;SDS011;56119;50.118;8.642;2023-02-12T12:13:31;57.83;;;32.95;;
69047;SDS011;56119;50.118;8.642;2023-02-12T12:16:17;52.42;;;30.83;;
69047;SDS011;56119;50.118;8.642;2023-02-12T12:19:27;49.80;;;29.20;;
69047;SDS011;56119;50.118;8.642;2023-02-12T12:23:23;57.05;;;30.50;;
69047;SDS011;56119;50.118;8.642;2023-02-12T12:25:20;49.67;;;30.02;;
69047;SDS011;56119;50.118;8.642;2023-02-12T12:33:05;45.70;;;27.85;;
69047;SDS011;56119;50.118;8.642;2023-02-12T12:35:44;45.70;;;27.48;;
69047;SDS011;56119;50.118;8.642;2023-02-12T12:38:17;46.97;;;28.42;;
69047;SDS011;56119;50.118;8.642;2023-02-12T12:40:49;46.58;;;28.23;;
69047;SDS011;56119;50.118;8.642;2023-02-12T12:45:56;45.22;;;27.70;;
69047;SDS011;56119;50.118;8.642;2023-02-12T12:48:46;47.78;;;27.83;;
69047;SDS011;56119;50.118;8.642;2023-02-12T12:53:58;42.65;;;28.52;;
69047;SDS011;56119;50.118;8.642;2023-02-12T12:58:58;43.75;;;27.05;;
69047;SDS011;56119;50.118;8.642;2023-02-12T13:09:47;45.08;;;28.52;;
69047;SDS011;56119;50.118;8.642;2023-02-12T13:15:17;45.05;;;26.88;;
69047;SDS011;56119;50.118;8.642;2023-02-12T13:20:34;41.50;;;24.95;;
69047;SDS011;56119;50.118;8.642;2023-02-12T13:23:04;42.33;;;26.15;;
69047;SDS011;56119;50.118;8.642;2023-02-12T13:25:36;42.03;;;25.67;;
69047;SDS011;56119;50.118;8.642;2023-02-12T13:28:05;44.58;;;28.13;;
69047;SDS011;56119;50.118;8.642;2023-02-12T13:30:38;43.20;;;25.80;;
69047;SDS011;56119;50.118;8.642;2023-02-12T13:35:44;42.53;;;26.23;;
69047;SDS011;56119;50.118;8.642;2023-02-12T13:38:21;43.80;;;26.38;;
69047;SDS011;56119;50.118;8.642;2023-02-12T13:40:47;43.63;;;26.35;;
69047;SDS011;56119;50.118;8.642;2023-02-12T13:45:51;39.90;;;25.25;;
69047;SDS011;56119;50.118;8.642;2023-02-12T13:53:22;33.83;;;21.20;;
69047;SDS011;56119;50.118;8.642;2023-02-12T13:55:57;29.30;;;18.85;;
69047;SDS011;56119;50.118;8.642;2023-02-12T14:03:31;22.58;;;14.40;;
69047;SDS011;56119;50.118;8.642;2023-02-12T14:06:10;20.90;;;13.75;;
69047;SDS011;56119;50.118;8.642;2023-02-12T14:08:38;28.38;;;15.27;;
69047;SDS011;56119;50.118;8.642;2023-02-12T14:11:07;25.05;;;16.27;;
69047;SDS011;56119;50.118;8.642;2023-02-12T14:13:35;21.85;;;13.90;;
69047;SDS011;56119;50.118;8.642;2023-02-12T14:21:40;20.50;;;12.90;;
69047;SDS011;56119;50.118;8.642;2023-02-12T14:24:45;18.65;;;12.48;;
69047;SDS011;56119;50.118;8.642;2023-02-12T14:26:58;17.58;;;11.85;;
69047;SDS011;56119;50.118;8.642;2023-02-12T14:29:24;15.48;;;10.25;;
69047;SDS011;56119;50.118;8.642;2023-02-12T14:31:51;16.42;;;9.88;;
69047;SDS011;56119;50.118;8.642;2023-02-12T14:36:46;12.98;;;9.10;;
69047;SDS011;56119;50.118;8.642;2023-02-12T14:41:47;14.27;;;9.02;;
69047;SDS011;56119;50.118;8.642;2023-02-12T14:46:49;14.82;;;10.27;;
69047;SDS011;56119;50.118;8.642;2023-02-12T14:49:22;15.30;;;10.68;;
69047;SDS011;56119;50.118;8.642;2023-02-12T14:51:51;15.52;;;11.07;;
69047;SDS011;56119;50.118;8.642;2023-02-12T14:56:45;21.10;;;14.45;;
69047;SDS011;56119;50.118;8.642;2023-02-12T14:59:13;25.17;;;15.30;;
69047;SDS011;56119;50.118;8.642;2023-02-12T15:01:42;24.85;;;15.32;;
69047;SDS011;56119;50.118;8.642;2023-02-12T15:04:18;22.60;;;14.18;;
69047;SDS011;56119;50.118;8.642;2023-02-12T15:06:59;21.25;;;14.10;;
69047;SDS011;56119;50.118;8.642;2023-02-12T15:09:34;22.02;;;13.07;;
69047;SDS011;56119;50.118;8.642;2023-02-12T15:14:27;17.73;;;10.63;;
69047;SDS011;56119;50.118;8.642;2023-02-12T15:17:01;16.27;;;10.75;;
69047;SDS011;56119;50.118;8.642;2023-02-12T15:22:03;15.65;;;10.23;;
69047;SDS011;56119;50.118;8.642;2023-02-12T15:24:34;17.77;;;10.77;;
69047;SDS011;56119;50.118;8.642;2023-02-12T15:27:01;17.38;;;11.18;;
69047;SDS011;56119;50.118;8.642;2023-02-12T15:29:35;17.92;;;12.20;;
69047;SDS011;56119;50.118;8.642;2023-02-12T15:32:06;17.77;;;11.55;;
69047;SDS011;56119;50.118;8.642;2023-02-12T15:34:35;19.45;;;12.68;;
69047;SDS011;56119;50.118;8.642;2023-02-12T15:37:06;19.67;;;12.43;;
69047;SDS011;56119;50.118;8.642;2023-02-12T15:39:40;19.80;;;12.05;;
69047;SDS011;56119;50.118;8.642;2023-02-12T15:45:00;18.00;;;11.45;;
69047;SDS011;56119;50.118;8.642;2023-02-12T15:47:26;21.27;;;12.30;;
69047;SDS011;56119;50.118;8.642;2023-02-12T15:49:52;19.50;;;11.65;;
69047;SDS011;56119;50.118;8.642;2023-02-12T15:52:25;20.27;;;12.95;;
69047;SDS011;56119;50.118;8.642;2023-02-12T15:54:58;21.27;;;12.82;;
69047;SDS011;56119;50.118;8.642;2023-02-12T15:57:24;23.27;;;12.93;;
69047;SDS011;56119;50.118;8.642;2023-02-12T15:59:51;19.50;;;11.68;;
69047;SDS011;56119;50.118;8.642;2023-02-12T16:02:24;19.67;;;12.63;;
69047;SDS011;56119;50.118;8.642;2023-02-12T16:04:51;21.55;;;12.52;;
69047;SDS011;56119;50.118;8.642;2023-02-12T16:07:17;21.77;;;12.98;;
69047;SDS011;56119;50.118;8.642;2023-02-12T16:09:44;24.08;;;13.77;;
69047;SDS011;56119;50.118;8.642;2023-02-12T16:12:11;22.63;;;13.80;;
69047;SDS011;56119;50.118;8.642;2023-02-12T16:19:55;24.75;;;15.02;;
69047;SDS011;56119;50.118;8.642;2023-02-12T16:22:23;26.42;;;14.73;;
69047;SDS011;56119;50.118;8.642;2023-02-12T16:24:51;26.05;;;15.13;;
69047;SDS011;56119;50.118;8.642;2023-02-12T16:29:45;25.30;;;13.95;;
69047;SDS011;56119;50.118;8.642;2023-02-12T16:32:25;22.65;;;12.90;;
69047;SDS011;56119;50.118;8.642;2023-02-12T16:42:31;25.48;;;13.85;;
69047;SDS011;56119;50.118;8.642;2023-02-12T16:44:57;27.48;;;14.98;;
69047;SDS011;56119;50.118;8.642;2023-02-12T21:23:01;17.23;;;12.35;;
69047;SDS011;56119;50.118;8.642;2023-02-12T21:25:27;16.98;;;11.40;;
69047;SDS011;56119;50.118;8.642;2023-02-12T21:27:53;18.98;;;12.55;;
69047;SDS011;56119;50.118;8.642;2023-02-12T21:30:19;18.38;;;11.25;;
69047;SDS011;56119;50.118;8.642;2023-02-12T21:32:45;16.30;;;11.45;;